Flight Track Log - Related Links

Times and Time Zones

All times are in EDT time to prevent confusion due to time zone crossing. See the IGO244 flight status page for this flight to view local times or setup timezone preferences in your user account.

Time Position Orientation Groundspeed Altitude Reporting Facility
EDT Latitude Longitude Course Direction KTS MPH feet Rate Location/Type
Wed 02:25:12 AM 18.5360 72.8780 161° South 393 452 18,500  Level FlightAware
Wed 02:25:57 AM 18.4690 72.9020 161° South 393 452 18,500 1,289 Level FlightAware
Wed 02:27:27 AM 18.2940 72.9630 162° South 436 502 21,400 1,556 Climbing FlightAware
Wed 02:28:12 AM 18.2060 72.9940 161° South 440 506 22,000 424 Climbing FlightAware
Wed 02:28:52 AM 18.1410 73.0170 161° South 440 506 22,000  Level FlightAware
Wed 02:29:32 AM 18.0750 73.0410 161° South 440 506 22,000  Level FlightAware
Wed 02:30:12 AM 18.0100 73.0650 161° South 440 506 22,000 3,388 Level FlightAware
Wed 02:30:57 AM 17.8700 73.1100 163° South 447 514 26,800 3,733 Climbing FlightAware
Wed 02:31:42 AM 17.7820 73.1410 161° South 457 526 27,600 1,059 Climbing FlightAware
Wed 02:32:22 AM 17.7010 73.1690 162° South 467 537 28,300 758 Climbing FlightAware
Wed 02:33:17 AM 17.5900 73.2080 161° South 475 547 28,800 1,080 Climbing FlightAware
Wed 02:34:02 AM 17.4900 73.2420 162° South 484 557 30,100 1,906 Climbing FlightAware
Wed 02:34:42 AM 17.4050 73.2720 161° South 474 545 31,500 2,175 Climbing FlightAware
Wed 02:35:22 AM 17.3230 73.3000 162° South 455 524 33,000 1,694 Climbing FlightAware
Wed 02:36:07 AM 17.2320 73.3310 162° South 456 525 33,900 1,129 Climbing FlightAware
Wed 02:36:47 AM 17.1500 73.3590 162° South 454 522 34,600 825 Climbing FlightAware
Wed 02:37:27 AM 17.0700 73.3810 165° South 443 510 35,000 300 Climbing FlightAware
Wed 02:38:07 AM 16.9970 73.4000 166° South 441 507 35,000  Level FlightAware
Wed 02:38:47 AM 16.9290 73.4180 166° South 441 507 35,000  Level FlightAware
Wed 02:39:37 AM 16.8450 73.4400 166° South 441 507 35,000  Level FlightAware
Wed 02:40:17 AM 16.7780 73.4570 166° South 441 507 35,000  Level FlightAware
Wed 02:40:57 AM 16.7110 73.4750 166° South 441 507 35,000  Level FlightAware
Wed 02:41:37 AM 16.6430 73.4920 167° South 441 507 35,000  Level FlightAware
Wed 02:42:17 AM 16.5760 73.5100 166° South 441 507 35,000  Level FlightAware
Wed 02:43:07 AM 16.4920 73.5320 166° South 441 507 35,000  Level FlightAware
Wed 02:43:47 AM 16.4250 73.5490 166° South 441 507 35,000  Level FlightAware
Wed 02:44:27 AM 16.3570 73.5670 166° South 441 507 35,000  Level FlightAware
Wed 02:45:07 AM 16.2900 73.5840 166° South 441 507 35,000  Level FlightAware
Wed 02:45:47 AM 16.2230 73.6020 166° South 441 507 35,000  Level FlightAware
Wed 02:46:37 AM 16.1390 73.6230 166° South 441 507 35,000  Level FlightAware
Wed 02:47:17 AM 16.0710 73.6410 166° South 441 507 35,000 -490 Level FlightAware
Wed 02:49:00 AM 15.9070 73.7196 155° Southeast  Level Estimated
Wed 02:50:00 AM 15.8115 73.7654 155° Southeast  Level Estimated
Wed 02:51:00 AM 15.7160 73.8111 155° Southeast  Level Estimated
Wed 02:52:00 AM 15.6204 73.8567 155° Southeast  Level Estimated
Wed 02:53:00 AM 15.5248 73.9023 155° Southeast  Level Estimated
Wed 02:54:00 AM 15.4293 73.9479 155° Southeast  Level Estimated
Wed 02:55:00 AM 15.3337 73.9934 155° Southeast  Level Estimated
Wed 02:56:00 AM 15.2381 74.0389 155° Southeast  Level Estimated
Wed 02:57:00 AM 15.1425 74.0844 155° Southeast  Level Estimated
Wed 02:58:00 AM 15.0469 74.1298 155° Southeast  Level Estimated
Wed 02:59:00 AM 14.9513 74.1752 155° Southeast  Level Estimated
Wed 03:00:00 AM 14.8557 74.2205 155° Southeast  Level Estimated
Wed 03:01:00 AM 14.7601 74.2658 155° Southeast  Level Estimated
Wed 03:02:00 AM 14.6644 74.3110 155° Southeast  Level Estimated
Wed 03:03:00 AM 14.5688 74.3562 155° Southeast  Level Estimated
Wed 03:04:00 AM 14.4731 74.4014 155° Southeast  Level Estimated
Wed 03:05:00 AM 14.3774 74.4465 155° Southeast  Level Estimated
Wed 03:06:00 AM 14.2818 74.4916 155° Southeast  Level Estimated
Wed 03:07:00 AM 14.1861 74.5367 155° Southeast  Level Estimated
Wed 03:08:00 AM 14.0904 74.5817 155° Southeast  Level Estimated
Wed 03:09:00 AM 13.9947 74.6266 155° Southeast  Level Estimated
Wed 03:10:00 AM 13.8990 74.6716 155° Southeast  Level Estimated
Wed 03:11:00 AM 13.8033 74.7165 156° South  Level Estimated
Wed 03:12:00 AM 13.7076 74.7613 156° South  Level Estimated
Wed 03:13:00 AM 13.6118 74.8062 156° South  Level Estimated
Wed 03:14:00 AM 13.5161 74.8510 156° South  Level Estimated
Wed 03:15:00 AM 13.4203 74.8957 156° South  Level Estimated
Wed 03:16:00 AM 13.3246 74.9404 156° South  Level Estimated
Wed 03:17:00 AM 13.2288 74.9851 156° South  Level Estimated
Wed 03:18:00 AM 13.1330 75.0297 156° South  Level Estimated
Wed 03:19:00 AM 13.0373 75.0744 156° South  Level Estimated
Wed 03:20:00 AM 12.9415 75.1189 156° South  Level Estimated
Wed 03:21:00 AM 12.8457 75.1635 156° South  Level Estimated
Wed 03:22:00 AM 12.7499 75.2080 156° South  Level Estimated
Wed 03:23:00 AM 12.6541 75.2525 156° South  Level Estimated
Wed 03:24:00 AM 12.5583 75.2969 156° South  Level Estimated
Wed 03:25:00 AM 12.4624 75.3413 156° South  Level Estimated
Wed 03:26:00 AM 12.3666 75.3857 156° South  Level Estimated
Wed 03:27:00 AM 12.2708 75.4301 156° South  Level Estimated
Wed 03:28:00 AM 12.1749 75.4744 156° South  Level Estimated
Wed 03:29:00 AM 12.0791 75.5186 156° South  Level Estimated
Wed 03:30:00 AM 11.9832 75.5629 156° South  Level Estimated
Wed 03:31:00 AM 11.8873 75.6071 156° South  Level Estimated
Wed 03:32:00 AM 11.7915 75.6513 156° South  Level Estimated
Wed 03:32:47 AM 10.8220 76.0880 156° South 385 443 12,400  Level FlightAware
Wed 03:33:00 AM 11.6956 75.6955 156° South  Level Estimated
Wed 03:33:32 AM 10.7510 76.1180 157° South 337 388 11,200  Level FlightAware
Wed 03:34:12 AM 10.6950 76.1430 156° South 305 351 10,100 -1,543 Descending FlightAware
Wed 03:34:42 AM 10.6580 76.1590 157° South 297 342 9,400 -1,418 Descending FlightAware
Wed 03:35:07 AM 10.6270 76.1720 158° South 294 338 8,800 -1,500 Descending FlightAware
Wed 03:35:22 AM 10.6060 76.1810 157° South 291 335 8,400 -1,467 Descending FlightAware
Wed 03:35:52 AM 10.5690 76.1960 158° South 287 330 7,700 -1,418 Descending FlightAware
Wed 03:36:17 AM 10.5400 76.2090 156° South 286 329 7,100 -1,418 Descending FlightAware
Wed 03:36:47 AM 10.5030 76.2250 157° South 286 329 6,400 -1,400 Descending FlightAware
Wed 03:37:17 AM 10.4660 76.2400 158° South 284 327 5,700 -1,418 Descending FlightAware
Wed 03:37:42 AM 10.4350 76.2540 156° South 279 321 5,100 -982 Descending FlightAware
Wed 03:38:12 AM 10.3990 76.2690 158° South 280 322 4,800 -533 Descending FlightAware
Wed 03:38:27 AM 10.3820 76.2760 158° South 277 319 4,700 -450 Descending FlightAware
Wed 03:38:52 AM 10.3520 76.2880 159° South 275 316 4,500 -600 Descending FlightAware
Wed 03:38:57 AM 10.3460 76.2890 171° South 276 318 4,400 -1,000 Descending FlightAware
Wed 03:39:22 AM 10.3170 76.2740 207° Southwest 273 314 4,000 -900 Descending FlightAware
Wed 03:39:37 AM 10.3100 76.2580 246° West 267 307 3,800 -450 Descending FlightAware
Wed 03:40:02 AM 10.2930 76.2300 238° Southwest 259 298 3,700 -109 Descending FlightAware
Wed 03:40:32 AM 10.2670 76.2080 220° Southwest 230 265 3,700  Level FlightAware
Wed 03:40:57 AM 10.2460 76.1950 211° Southwest 214 246 3,700  Level FlightAware
Wed 03:41:27 AM 10.2190 76.1820 205° Southwest 213 245 3,700 -500 Level FlightAware
Wed 03:41:57 AM 10.1910 76.1740 196° South 213 245 3,200 -771 Descending FlightAware
Wed 03:42:37 AM 10.1570 76.1840 164° South 198 228 2,800 -771 Descending FlightAware
Wed 03:43:07 AM 10.1470 76.2090 112° Southeast 195 224 2,300 -600 Descending FlightAware
Wed 03:43:47 AM 10.1480 76.2440 88° East 166 191 2,100 -171 Descending FlightAware
Wed 03:44:17 AM 10.1480 76.2660 90° East 155 178 2,100  Level FlightAware
Wed 03:44:42 AM 10.1490 76.2840 87° East 157 181 2,100 -300 Level FlightAware
Wed 03:44:57 AM 10.1490 76.2940 90° East 155 178 1,900 -800 Descending FlightAware
Wed 03:45:27 AM 10.1490 76.3160 90° East 157 181 1,500 -873 Descending FlightAware
Wed 03:45:52 AM 10.1500 76.3350 87° East 154 177 1,100 -1,000 Descending FlightAware
Wed 03:45:57 AM 10.1500 76.3380 90° East 154 177 1,000 -900 Descending FlightAware
Wed 03:46:32 AM 10.1500 76.3650 90° East 153 176 500 -857 Descending FlightAware
Wed 03:49:00 AM 10.1520 76.4019 87° East  Level Estimated
Wed 03:50:00 AM 10.1520 76.4019 315° West  Level Estimated
Wed 03:51:00 AM 10.1520 76.4019 315° West  Level Estimated
Wed 03:52:00 AM 10.1520 76.4019 315° West  Level Estimated
Wed 03:53:00 AM 10.1520 76.4019 315° West  Level Estimated
Wed 03:54:00 AM 10.1520 76.4019 315° West  Level Estimated
Wed 03:55:00 AM 10.1520 76.4019 315° West  Level Estimated

Login

Don't have an account? Register now (free) for customized features, flight alerts, and more!